MMDO/DGO METAR and TAF weather

Enter ICAO airport designator
Station Type Date Time Source
MMDO METAR 2021/09/28 13:43 UTC NOAA

MMDO 281343Z 00000KT 9SM SKC 13/13 A3025 RMK HZY


Station Type Date Time Source
MMDO Decoded METAR 2021/09/28 13:43 UTC NOAA

Durango Airport, Mexico (MMDO) 24-08N 104-32W
Sep 28, 2021 - 09:43 AM EDT / 2021.09.28 1343 UTC
Wind: Calm:0
Visibility: 9 mile(s):0
Sky conditions: clear
Temperature: 55 F (13 C)
Dew Point: 55 F (13 C)
Relative Humidity: 100%
Pressure (altimeter): 30.25 in. Hg (1024 hPa)
ob: MMDO 281343Z 00000KT 9SM SKC 13/13 A3025 RMK HZY
cycle: 13

Station Type Date Time Source
MMDO TAF 2021/09/28 06:58 UTC NOAA

TAF MMDO 280252Z 2806/2906 24005KT P6SM VC RA BKN025CB BKN070
TEMPO 2806/2809 5SM RA
FM281200 00000KT 5SM HZ SCT020
TEMPO 2812/2815 3SM HZ BKN020
FM281800 32005KT P6SM SCT020 BKN070
TEMPO 2822/2902 5SM TSRA BKN020CB

Example: see airport list